sensor_id;sensor_type;location;lat;lon;timestamp;P1;durP1;ratioP1;P2;durP2;ratioP2
21546;SDS011;41275;51.912;4.388;2022-07-30T00:00:37;7.17;;;2.50;;
21546;SDS011;41275;51.912;4.388;2022-07-30T00:05:58;5.35;;;2.65;;
21546;SDS011;41275;51.912;4.388;2022-07-30T00:11:19;7.47;;;2.47;;
21546;SDS011;41275;51.912;4.388;2022-07-30T00:16:41;7.35;;;2.83;;
21546;SDS011;41275;51.912;4.388;2022-07-30T00:22:03;7.33;;;2.47;;
21546;SDS011;41275;51.912;4.388;2022-07-30T00:27:24;8.45;;;2.90;;
21546;SDS011;41275;51.912;4.388;2022-07-30T00:32:45;9.48;;;4.00;;
21546;SDS011;41275;51.912;4.388;2022-07-30T00:38:06;6.10;;;3.03;;
21546;SDS011;41275;51.912;4.388;2022-07-30T00:43:27;9.60;;;3.38;;
21546;SDS011;41275;51.912;4.388;2022-07-30T00:48:49;7.70;;;3.37;;
21546;SDS011;41275;51.912;4.388;2022-07-30T00:54:10;7.68;;;3.05;;
21546;SDS011;41275;51.912;4.388;2022-07-30T00:59:31;6.83;;;3.37;;
21546;SDS011;41275;51.912;4.388;2022-07-30T01:04:53;7.55;;;3.33;;
21546;SDS011;41275;51.912;4.388;2022-07-30T01:10:14;8.48;;;3.40;;
21546;SDS011;41275;51.912;4.388;2022-07-30T01:15:36;8.52;;;3.45;;
21546;SDS011;41275;51.912;4.388;2022-07-30T01:20:59;7.15;;;3.03;;
21546;SDS011;41275;51.912;4.388;2022-07-30T01:26:27;7.50;;;3.15;;
21546;SDS011;41275;51.912;4.388;2022-07-30T01:31:49;7.50;;;3.25;;
21546;SDS011;41275;51.912;4.388;2022-07-30T01:37:15;6.13;;;2.90;;
21546;SDS011;41275;51.912;4.388;2022-07-30T01:42:38;5.80;;;2.70;;
21546;SDS011;41275;51.912;4.388;2022-07-30T01:48:02;6.50;;;3.03;;
21546;SDS011;41275;51.912;4.388;2022-07-30T01:53:26;5.90;;;2.78;;
21546;SDS011;41275;51.912;4.388;2022-07-30T01:58:51;7.90;;;3.30;;
21546;SDS011;41275;51.912;4.388;2022-07-30T02:04:15;6.82;;;2.90;;
21546;SDS011;41275;51.912;4.388;2022-07-30T02:09:39;8.00;;;3.20;;
21546;SDS011;41275;51.912;4.388;2022-07-30T02:20:37;8.23;;;3.10;;
21546;SDS011;41275;51.912;4.388;2022-07-30T02:26:03;6.15;;;3.00;;
21546;SDS011;41275;51.912;4.388;2022-07-30T02:31:26;8.40;;;3.38;;
21546;SDS011;41275;51.912;4.388;2022-07-30T02:36:48;9.60;;;3.25;;
21546;SDS011;41275;51.912;4.388;2022-07-30T02:42:11;8.23;;;2.97;;
21546;SDS011;41275;51.912;4.388;2022-07-30T02:47:35;8.15;;;2.53;;
21546;SDS011;41275;51.912;4.388;2022-07-30T02:52:58;5.32;;;2.47;;
21546;SDS011;41275;51.912;4.388;2022-07-30T02:58:21;5.63;;;2.40;;
21546;SDS011;41275;51.912;4.388;2022-07-30T03:03:45;5.20;;;2.60;;
21546;SDS011;41275;51.912;4.388;2022-07-30T03:09:08;5.20;;;2.47;;
21546;SDS011;41275;51.912;4.388;2022-07-30T03:14:29;6.00;;;2.50;;
21546;SDS011;41275;51.912;4.388;2022-07-30T03:19:52;7.30;;;3.00;;
21546;SDS011;41275;51.912;4.388;2022-07-30T03:25:15;6.13;;;2.97;;
21546;SDS011;41275;51.912;4.388;2022-07-30T03:30:41;6.60;;;3.30;;
21546;SDS011;41275;51.912;4.388;2022-07-30T03:36:03;7.03;;;3.00;;
21546;SDS011;41275;51.912;4.388;2022-07-30T03:41:26;5.80;;;2.70;;
21546;SDS011;41275;51.912;4.388;2022-07-30T03:46:48;6.05;;;2.83;;
21546;SDS011;41275;51.912;4.388;2022-07-30T03:52:12;6.80;;;3.07;;
21546;SDS011;41275;51.912;4.388;2022-07-30T03:57:33;6.53;;;2.73;;
21546;SDS011;41275;51.912;4.388;2022-07-30T04:02:55;7.35;;;2.80;;
21546;SDS011;41275;51.912;4.388;2022-07-30T04:08:16;7.57;;;3.33;;
21546;SDS011;41275;51.912;4.388;2022-07-30T04:13:37;6.90;;;2.80;;
21546;SDS011;41275;51.912;4.388;2022-07-30T04:18:59;6.28;;;2.55;;
21546;SDS011;41275;51.912;4.388;2022-07-30T04:24:25;4.97;;;2.40;;
21546;SDS011;41275;51.912;4.388;2022-07-30T04:29:47;7.40;;;2.53;;
21546;SDS011;41275;51.912;4.388;2022-07-30T04:35:09;6.57;;;2.45;;
21546;SDS011;41275;51.912;4.388;2022-07-30T04:40:30;4.60;;;2.58;;
21546;SDS011;41275;51.912;4.388;2022-07-30T04:45:51;5.57;;;2.10;;
21546;SDS011;41275;51.912;4.388;2022-07-30T04:51:21;5.90;;;2.28;;
21546;SDS011;41275;51.912;4.388;2022-07-30T04:56:46;5.53;;;2.40;;
21546;SDS011;41275;51.912;4.388;2022-07-30T05:02:08;4.75;;;2.30;;
21546;SDS011;41275;51.912;4.388;2022-07-30T05:07:31;5.43;;;2.10;;
21546;SDS011;41275;51.912;4.388;2022-07-30T05:12:53;5.30;;;2.17;;
21546;SDS011;41275;51.912;4.388;2022-07-30T05:18:14;4.20;;;2.00;;
21546;SDS011;41275;51.912;4.388;2022-07-30T05:23:35;6.20;;;2.03;;
21546;SDS011;41275;51.912;4.388;2022-07-30T05:28:57;6.78;;;1.92;;
21546;SDS011;41275;51.912;4.388;2022-07-30T05:34:18;5.20;;;1.90;;
21546;SDS011;41275;51.912;4.388;2022-07-30T05:39:39;3.80;;;1.77;;
21546;SDS011;41275;51.912;4.388;2022-07-30T05:45:00;4.20;;;1.80;;
21546;SDS011;41275;51.912;4.388;2022-07-30T05:50:22;5.05;;;1.70;;
21546;SDS011;41275;51.912;4.388;2022-07-30T05:55:43;3.42;;;1.55;;
21546;SDS011;41275;51.912;4.388;2022-07-30T06:01:04;4.07;;;1.40;;
21546;SDS011;41275;51.912;4.388;2022-07-30T06:06:25;3.65;;;1.20;;
21546;SDS011;41275;51.912;4.388;2022-07-30T06:11:47;4.70;;;1.40;;
21546;SDS011;41275;51.912;4.388;2022-07-30T06:17:08;3.70;;;1.30;;
21546;SDS011;41275;51.912;4.388;2022-07-30T06:22:29;3.88;;;1.20;;
21546;SDS011;41275;51.912;4.388;2022-07-30T06:27:50;4.37;;;1.23;;
21546;SDS011;41275;51.912;4.388;2022-07-30T06:33:11;4.60;;;1.50;;
21546;SDS011;41275;51.912;4.388;2022-07-30T06:38:33;6.53;;;1.50;;
21546;SDS011;41275;51.912;4.388;2022-07-30T06:43:54;3.25;;;1.30;;
21546;SDS011;41275;51.912;4.388;2022-07-30T06:49:15;7.15;;;1.92;;
21546;SDS011;41275;51.912;4.388;2022-07-30T06:54:36;3.38;;;1.30;;
21546;SDS011;41275;51.912;4.388;2022-07-30T06:59:57;4.75;;;1.30;;
21546;SDS011;41275;51.912;4.388;2022-07-30T07:05:19;7.90;;;2.20;;
21546;SDS011;41275;51.912;4.388;2022-07-30T07:10:42;3.92;;;1.17;;
21546;SDS011;41275;51.912;4.388;2022-07-30T07:16:04;3.60;;;1.13;;
21546;SDS011;41275;51.912;4.388;2022-07-30T07:21:25;2.87;;;1.10;;
21546;SDS011;41275;51.912;4.388;2022-07-30T07:26:46;2.65;;;1.23;;
21546;SDS011;41275;51.912;4.388;2022-07-30T07:32:07;3.15;;;1.00;;
21546;SDS011;41275;51.912;4.388;2022-07-30T07:37:29;2.70;;;1.00;;
21546;SDS011;41275;51.912;4.388;2022-07-30T07:42:50;4.03;;;1.13;;
21546;SDS011;41275;51.912;4.388;2022-07-30T07:48:11;1.80;;;0.87;;
21546;SDS011;41275;51.912;4.388;2022-07-30T07:53:33;4.15;;;0.93;;
21546;SDS011;41275;51.912;4.388;2022-07-30T07:58:54;2.50;;;0.70;;
21546;SDS011;41275;51.912;4.388;2022-07-30T08:04:15;4.25;;;0.80;;
21546;SDS011;41275;51.912;4.388;2022-07-30T08:09:37;3.65;;;0.80;;
21546;SDS011;41275;51.912;4.388;2022-07-30T08:14:58;2.65;;;1.00;;
21546;SDS011;41275;51.912;4.388;2022-07-30T08:20:20;2.60;;;0.80;;
21546;SDS011;41275;51.912;4.388;2022-07-30T08:25:42;2.85;;;0.85;;
21546;SDS011;41275;51.912;4.388;2022-07-30T08:31:03;3.78;;;1.00;;
21546;SDS011;41275;51.912;4.388;2022-07-30T08:36:24;4.15;;;0.73;;
21546;SDS011;41275;51.912;4.388;2022-07-30T08:41:45;2.43;;;0.93;;
21546;SDS011;41275;51.912;4.388;2022-07-30T08:47:08;3.38;;;1.33;;
21546;SDS011;41275;51.912;4.388;2022-07-30T08:52:31;3.40;;;0.88;;
21546;SDS011;41275;51.912;4.388;2022-07-30T08:57:55;1.58;;;0.90;;
21546;SDS011;41275;51.912;4.388;2022-07-30T09:03:17;1.63;;;0.90;;
21546;SDS011;41275;51.912;4.388;2022-07-30T09:08:38;5.43;;;1.00;;
21546;SDS011;41275;51.912;4.388;2022-07-30T09:14:06;3.90;;;1.15;;
21546;SDS011;41275;51.912;4.388;2022-07-30T09:19:32;2.67;;;0.85;;
21546;SDS011;41275;51.912;4.388;2022-07-30T09:24:53;1.42;;;0.70;;
21546;SDS011;41275;51.912;4.388;2022-07-30T09:30:15;3.08;;;0.90;;
21546;SDS011;41275;51.912;4.388;2022-07-30T09:35:36;1.73;;;0.63;;
21546;SDS011;41275;51.912;4.388;2022-07-30T09:40:58;2.47;;;0.93;;
21546;SDS011;41275;51.912;4.388;2022-07-30T09:46:19;2.55;;;1.10;;
21546;SDS011;41275;51.912;4.388;2022-07-30T09:51:40;3.47;;;1.00;;
21546;SDS011;41275;51.912;4.388;2022-07-30T09:57:03;3.40;;;1.10;;
21546;SDS011;41275;51.912;4.388;2022-07-30T10:02:28;4.53;;;1.60;;
21546;SDS011;41275;51.912;4.388;2022-07-30T10:07:52;2.88;;;1.10;;
21546;SDS011;41275;51.912;4.388;2022-07-30T10:13:21;4.73;;;0.90;;
21546;SDS011;41275;51.912;4.388;2022-07-30T10:18:42;2.43;;;1.20;;
21546;SDS011;41275;51.912;4.388;2022-07-30T10:24:03;5.37;;;1.70;;
21546;SDS011;41275;51.912;4.388;2022-07-30T10:29:26;4.03;;;1.08;;
21546;SDS011;41275;51.912;4.388;2022-07-30T10:34:47;2.85;;;1.30;;
21546;SDS011;41275;51.912;4.388;2022-07-30T10:51:07;4.93;;;1.25;;
21546;SDS011;41275;51.912;4.388;2022-07-30T10:56:28;3.83;;;1.30;;
21546;SDS011;41275;51.912;4.388;2022-07-30T11:18:03;3.55;;;1.05;;
21546;SDS011;41275;51.912;4.388;2022-07-30T11:28:49;3.45;;;1.10;;
21546;SDS011;41275;51.912;4.388;2022-07-30T11:50:39;3.27;;;1.00;;
21546;SDS011;41275;51.912;4.388;2022-07-30T11:56:02;2.80;;;1.00;;
21546;SDS011;41275;51.912;4.388;2022-07-30T12:01:23;2.13;;;0.80;;
21546;SDS011;41275;51.912;4.388;2022-07-30T12:06:45;3.20;;;1.00;;
21546;SDS011;41275;51.912;4.388;2022-07-30T12:12:20;4.53;;;1.20;;
21546;SDS011;41275;51.912;4.388;2022-07-30T12:17:45;3.23;;;1.20;;
21546;SDS011;41275;51.912;4.388;2022-07-30T12:23:10;3.63;;;0.90;;
21546;SDS011;41275;51.912;4.388;2022-07-30T12:28:32;3.45;;;1.20;;
21546;SDS011;41275;51.912;4.388;2022-07-30T12:33:55;4.87;;;1.23;;
21546;SDS011;41275;51.912;4.388;2022-07-30T12:39:20;4.83;;;1.13;;
21546;SDS011;41275;51.912;4.388;2022-07-30T12:44:43;4.53;;;1.27;;
21546;SDS011;41275;51.912;4.388;2022-07-30T12:50:14;3.08;;;1.00;;
21546;SDS011;41275;51.912;4.388;2022-07-30T12:55:37;6.68;;;1.42;;
21546;SDS011;41275;51.912;4.388;2022-07-30T13:01:00;2.67;;;1.17;;
21546;SDS011;41275;51.912;4.388;2022-07-30T13:06:21;4.40;;;1.20;;
21546;SDS011;41275;51.912;4.388;2022-07-30T13:11:45;2.60;;;1.02;;
21546;SDS011;41275;51.912;4.388;2022-07-30T13:17:07;3.97;;;1.23;;
21546;SDS011;41275;51.912;4.388;2022-07-30T13:22:29;2.60;;;1.10;;
21546;SDS011;41275;51.912;4.388;2022-07-30T13:27:50;4.85;;;1.08;;
21546;SDS011;41275;51.912;4.388;2022-07-30T13:33:11;5.50;;;1.20;;
21546;SDS011;41275;51.912;4.388;2022-07-30T13:38:34;7.28;;;1.50;;
21546;SDS011;41275;51.912;4.388;2022-07-30T13:43:55;15.50;;;1.70;;
21546;SDS011;41275;51.912;4.388;2022-07-30T13:49:16;4.90;;;1.00;;
21546;SDS011;41275;51.912;4.388;2022-07-30T13:54:37;2.95;;;1.08;;
21546;SDS011;41275;51.912;4.388;2022-07-30T13:59:58;6.50;;;1.47;;
21546;SDS011;41275;51.912;4.388;2022-07-30T14:05:20;6.53;;;1.23;;
21546;SDS011;41275;51.912;4.388;2022-07-30T14:10:41;3.17;;;1.20;;
21546;SDS011;41275;51.912;4.388;2022-07-30T14:16:02;3.15;;;1.10;;
21546;SDS011;41275;51.912;4.388;2022-07-30T14:21:24;4.50;;;1.20;;
21546;SDS011;41275;51.912;4.388;2022-07-30T14:26:45;5.70;;;1.35;;
21546;SDS011;41275;51.912;4.388;2022-07-30T14:32:06;3.20;;;1.10;;
21546;SDS011;41275;51.912;4.388;2022-07-30T14:37:27;2.83;;;1.50;;
21546;SDS011;41275;51.912;4.388;2022-07-30T14:42:49;3.75;;;1.23;;
21546;SDS011;41275;51.912;4.388;2022-07-30T14:48:10;5.93;;;2.50;;
21546;SDS011;41275;51.912;4.388;2022-07-30T14:53:31;5.18;;;1.50;;
21546;SDS011;41275;51.912;4.388;2022-07-30T14:58:52;4.40;;;1.10;;
21546;SDS011;41275;51.912;4.388;2022-07-30T15:04:14;5.38;;;2.10;;
21546;SDS011;41275;51.912;4.388;2022-07-30T15:09:36;5.45;;;1.70;;
21546;SDS011;41275;51.912;4.388;2022-07-30T15:14:57;6.82;;;1.90;;
21546;SDS011;41275;51.912;4.388;2022-07-30T15:20:18;7.13;;;1.65;;
21546;SDS011;41275;51.912;4.388;2022-07-30T15:25:40;6.53;;;1.70;;
21546;SDS011;41275;51.912;4.388;2022-07-30T15:31:01;5.28;;;2.05;;
21546;SDS011;41275;51.912;4.388;2022-07-30T15:36:23;8.13;;;1.97;;
21546;SDS011;41275;51.912;4.388;2022-07-30T15:41:44;5.07;;;1.87;;
21546;SDS011;41275;51.912;4.388;2022-07-30T15:47:05;4.50;;;1.50;;
21546;SDS011;41275;51.912;4.388;2022-07-30T15:52:26;5.90;;;2.05;;
21546;SDS011;41275;51.912;4.388;2022-07-30T15:57:48;5.07;;;1.90;;
21546;SDS011;41275;51.912;4.388;2022-07-30T16:03:09;5.10;;;1.60;;
21546;SDS011;41275;51.912;4.388;2022-07-30T16:08:30;6.40;;;1.98;;
21546;SDS011;41275;51.912;4.388;2022-07-30T16:13:52;5.40;;;1.95;;
21546;SDS011;41275;51.912;4.388;2022-07-30T16:19:13;3.22;;;1.70;;
21546;SDS011;41275;51.912;4.388;2022-07-30T16:24:34;5.72;;;1.58;;
21546;SDS011;41275;51.912;4.388;2022-07-30T16:29:56;5.68;;;1.95;;
21546;SDS011;41275;51.912;4.388;2022-07-30T16:35:17;4.80;;;2.00;;
21546;SDS011;41275;51.912;4.388;2022-07-30T16:40:38;4.97;;;1.80;;
21546;SDS011;41275;51.912;4.388;2022-07-30T16:46:00;4.82;;;1.70;;
21546;SDS011;41275;51.912;4.388;2022-07-30T16:51:21;5.33;;;1.80;;
21546;SDS011;41275;51.912;4.388;2022-07-30T16:56:42;4.53;;;1.60;;
21546;SDS011;41275;51.912;4.388;2022-07-30T17:02:03;4.10;;;1.90;;
21546;SDS011;41275;51.912;4.388;2022-07-30T17:07:24;5.07;;;2.22;;
21546;SDS011;41275;51.912;4.388;2022-07-30T17:12:46;3.97;;;2.00;;
21546;SDS011;41275;51.912;4.388;2022-07-30T17:18:07;5.43;;;2.20;;
21546;SDS011;41275;51.912;4.388;2022-07-30T17:23:29;5.97;;;1.88;;
21546;SDS011;41275;51.912;4.388;2022-07-30T17:28:50;4.37;;;2.10;;
21546;SDS011;41275;51.912;4.388;2022-07-30T17:34:12;5.83;;;1.93;;
21546;SDS011;41275;51.912;4.388;2022-07-30T17:39:34;5.70;;;2.50;;
21546;SDS011;41275;51.912;4.388;2022-07-30T17:44:56;4.87;;;2.30;;
21546;SDS011;41275;51.912;4.388;2022-07-30T17:50:19;6.10;;;2.75;;
21546;SDS011;41275;51.912;4.388;2022-07-30T17:55:40;6.50;;;2.90;;
21546;SDS011;41275;51.912;4.388;2022-07-30T18:01:02;6.50;;;2.78;;
21546;SDS011;41275;51.912;4.388;2022-07-30T18:06:24;4.82;;;2.38;;
21546;SDS011;41275;51.912;4.388;2022-07-30T18:11:45;5.82;;;2.20;;
21546;SDS011;41275;51.912;4.388;2022-07-30T18:17:06;6.65;;;2.33;;
21546;SDS011;41275;51.912;4.388;2022-07-30T18:22:27;6.67;;;2.57;;
21546;SDS011;41275;51.912;4.388;2022-07-30T18:27:49;5.30;;;2.00;;
21546;SDS011;41275;51.912;4.388;2022-07-30T18:33:11;5.37;;;1.90;;
21546;SDS011;41275;51.912;4.388;2022-07-30T18:38:32;6.93;;;2.10;;
21546;SDS011;41275;51.912;4.388;2022-07-30T18:43:53;6.90;;;2.10;;
21546;SDS011;41275;51.912;4.388;2022-07-30T18:49:14;6.38;;;2.10;;
21546;SDS011;41275;51.912;4.388;2022-07-30T18:54:36;4.18;;;1.92;;
21546;SDS011;41275;51.912;4.388;2022-07-30T18:59:57;3.93;;;1.87;;
21546;SDS011;41275;51.912;4.388;2022-07-30T19:05:18;4.30;;;2.10;;
21546;SDS011;41275;51.912;4.388;2022-07-30T19:10:40;5.55;;;2.20;;
21546;SDS011;41275;51.912;4.388;2022-07-30T19:16:01;5.57;;;2.53;;
21546;SDS011;41275;51.912;4.388;2022-07-30T19:21:23;6.50;;;2.80;;
21546;SDS011;41275;51.912;4.388;2022-07-30T19:26:44;7.07;;;2.70;;
21546;SDS011;41275;51.912;4.388;2022-07-30T19:32:05;6.03;;;2.45;;
21546;SDS011;41275;51.912;4.388;2022-07-30T19:37:26;7.87;;;2.60;;
21546;SDS011;41275;51.912;4.388;2022-07-30T19:42:51;7.97;;;2.40;;
21546;SDS011;41275;51.912;4.388;2022-07-30T19:48:12;5.77;;;2.60;;
21546;SDS011;41275;51.912;4.388;2022-07-30T19:53:34;7.90;;;2.93;;
21546;SDS011;41275;51.912;4.388;2022-07-30T19:58:55;6.47;;;2.80;;
21546;SDS011;41275;51.912;4.388;2022-07-30T20:04:16;4.97;;;2.07;;
21546;SDS011;41275;51.912;4.388;2022-07-30T20:09:37;6.00;;;2.45;;
21546;SDS011;41275;51.912;4.388;2022-07-30T20:15:01;4.43;;;2.00;;
21546;SDS011;41275;51.912;4.388;2022-07-30T20:20:22;3.93;;;2.27;;
21546;SDS011;41275;51.912;4.388;2022-07-30T20:25:43;3.45;;;1.63;;
21546;SDS011;41275;51.912;4.388;2022-07-30T20:31:05;5.32;;;1.90;;
21546;SDS011;41275;51.912;4.388;2022-07-30T20:36:29;3.60;;;1.33;;
21546;SDS011;41275;51.912;4.388;2022-07-30T20:41:50;4.22;;;1.50;;
21546;SDS011;41275;51.912;4.388;2022-07-30T20:47:27;5.10;;;1.30;;
21546;SDS011;41275;51.912;4.388;2022-07-30T20:52:48;4.00;;;1.45;;
21546;SDS011;41275;51.912;4.388;2022-07-30T20:58:10;5.60;;;1.63;;
21546;SDS011;41275;51.912;4.388;2022-07-30T21:03:31;3.40;;;1.40;;
21546;SDS011;41275;51.912;4.388;2022-07-30T21:08:52;6.70;;;1.52;;
21546;SDS011;41275;51.912;4.388;2022-07-30T21:14:16;4.57;;;1.10;;
21546;SDS011;41275;51.912;4.388;2022-07-30T21:19:38;4.80;;;1.50;;
21546;SDS011;41275;51.912;4.388;2022-07-30T21:24:59;4.53;;;1.52;;
21546;SDS011;41275;51.912;4.388;2022-07-30T21:30:20;4.57;;;1.40;;
21546;SDS011;41275;51.912;4.388;2022-07-30T21:35:41;5.05;;;1.70;;
21546;SDS011;41275;51.912;4.388;2022-07-30T21:41:04;3.70;;;1.60;;
21546;SDS011;41275;51.912;4.388;2022-07-30T21:46:26;2.63;;;1.37;;
21546;SDS011;41275;51.912;4.388;2022-07-30T21:51:47;2.97;;;1.27;;
21546;SDS011;41275;51.912;4.388;2022-07-30T21:57:08;3.70;;;1.58;;
21546;SDS011;41275;51.912;4.388;2022-07-30T22:02:29;4.07;;;1.40;;
21546;SDS011;41275;51.912;4.388;2022-07-30T22:07:51;4.63;;;1.55;;
21546;SDS011;41275;51.912;4.388;2022-07-30T22:13:12;3.20;;;1.27;;
21546;SDS011;41275;51.912;4.388;2022-07-30T22:18:34;3.85;;;1.90;;
21546;SDS011;41275;51.912;4.388;2022-07-30T22:23:56;6.47;;;2.30;;
21546;SDS011;41275;51.912;4.388;2022-07-30T22:29:17;5.50;;;2.47;;
21546;SDS011;41275;51.912;4.388;2022-07-30T22:34:38;6.60;;;2.10;;
21546;SDS011;41275;51.912;4.388;2022-07-30T22:39:59;6.33;;;2.03;;
21546;SDS011;41275;51.912;4.388;2022-07-30T22:45:21;5.13;;;2.10;;
21546;SDS011;41275;51.912;4.388;2022-07-30T22:50:42;7.10;;;2.47;;
21546;SDS011;41275;51.912;4.388;2022-07-30T22:56:04;6.40;;;2.17;;
21546;SDS011;41275;51.912;4.388;2022-07-30T23:01:25;6.13;;;2.50;;
21546;SDS011;41275;51.912;4.388;2022-07-30T23:06:46;4.27;;;2.20;;
21546;SDS011;41275;51.912;4.388;2022-07-30T23:12:08;4.03;;;1.92;;
21546;SDS011;41275;51.912;4.388;2022-07-30T23:17:29;4.68;;;1.95;;
21546;SDS011;41275;51.912;4.388;2022-07-30T23:22:50;4.90;;;1.80;;
21546;SDS011;41275;51.912;4.388;2022-07-30T23:28:11;6.20;;;1.55;;
21546;SDS011;41275;51.912;4.388;2022-07-30T23:33:33;4.37;;;1.40;;
21546;SDS011;41275;51.912;4.388;2022-07-30T23:38:54;4.28;;;1.40;;
21546;SDS011;41275;51.912;4.388;2022-07-30T23:44:15;4.00;;;1.50;;
21546;SDS011;41275;51.912;4.388;2022-07-30T23:49:36;4.97;;;1.40;;
21546;SDS011;41275;51.912;4.388;2022-07-30T23:54:58;2.60;;;1.20;;
